Sperwer — PF4812 — position and weather

sailwx.info

Track history (hours):
 
Tides and Currents Weather Stations Pressure Air Temp Water Temp Dewpoint Dewpoint Depression Visibility Wind Speed Wind Dir Waves Ship Positions

Sperwer

Last reported at 2016-Nov-14 08:33 UTC. Time now 2016-Dec-11 13:59 UTC.
Position N 51°04' E 003°34'.
Warning: this ship's position is 27 days out of date.

Length 39 m; draft 0.2 m.

Type: Ship. MMSI: 244710268.

Date/timePositionNaut miles runAvg speedWind from/ knotsBaromVisibWave heightAir tempDewpointWater temp
2016-Nov-14 08:33N 51°04' E 003°34'12 3.9
2016-Nov-14 05:30N 51°12' E 003°48'0 0.1
2016-Nov-14 00:10N 51°13' E 003°48'0 0.0
2016-Nov-13 23:27N 51°13' E 003°48'0 0.0
2016-Nov-13 22:25N 51°13' E 003°48'0 0.0
2016-Nov-13 19:29N 51°13' E 003°48'0 0.0
2016-Nov-13 18:31N 51°13' E 003°48'0 0.0
2016-Nov-13 17:32N 51°13' E 003°48'1 0.7
2016-Nov-13 15:25N 51°14' E 003°49'6 3.3
2016-Nov-13 13:33N 51°20' E 003°49'10 3.3
2016-Nov-13 10:26N 51°27' E 004°01'29 1.0
2016-Nov-12 06:33N 51°46' E 004°37'0 0.0
2016-Nov-12 03:30N 51°46' E 004°37'0 0.0
2016-Nov-12 02:33N 51°46' E 004°37'0 0.0
2016-Nov-12 00:33N 51°46' E 004°37'0 0.0
2016-Nov-11 23:27N 51°46' E 004°37'0 0.0
2016-Nov-11 19:33N 51°46' E 004°37'0 0.0
2016-Nov-11 15:33N 51°46' E 004°37'0 0.0
2016-Nov-11 14:32N 51°46' E 004°37'  
Track history (hours):
 
Tides and Currents Weather Stations Pressure Air Temp Water Temp Dewpoint Dewpoint Depression Visibility Wind Speed Wind Dir Waves Ship Positions

Sperwer

Last reported at 2016-Nov-14 08:33 UTC. Time now 2016-Dec-11 13:59 UTC.
Position N 51°04' E 003°34'.
Warning: this ship's position is 27 days out of date.

Length 39 m; draft 0.2 m.

Type: Ship. MMSI: 244710268.

Date/timePositionNaut miles runAvg speedWind from/ knotsBaromVisibWave heightAir tempDewpointWater temp
2016-Nov-14 08:33N 51°04' E 003°34'12 3.9
2016-Nov-14 05:30N 51°12' E 003°48'0 0.1
2016-Nov-14 00:10N 51°13' E 003°48'0 0.0
2016-Nov-13 23:27N 51°13' E 003°48'0 0.0
2016-Nov-13 22:25N 51°13' E 003°48'0 0.0
2016-Nov-13 19:29N 51°13' E 003°48'0 0.0
2016-Nov-13 18:31N 51°13' E 003°48'0 0.0
2016-Nov-13 17:32N 51°13' E 003°48'1 0.7
2016-Nov-13 15:25N 51°14' E 003°49'6 3.3
2016-Nov-13 13:33N 51°20' E 003°49'10 3.3
2016-Nov-13 10:26N 51°27' E 004°01'29 1.0
2016-Nov-12 06:33N 51°46' E 004°37'0 0.0
2016-Nov-12 03:30N 51°46' E 004°37'0 0.0
2016-Nov-12 02:33N 51°46' E 004°37'0 0.0
2016-Nov-12 00:33N 51°46' E 004°37'0 0.0
2016-Nov-11 23:27N 51°46' E 004°37'0 0.0
2016-Nov-11 19:33N 51°46' E 004°37'0 0.0
2016-Nov-11 15:33N 51°46' E 004°37'0 0.0
2016-Nov-11 14:32N 51°46' E 004°37'  

Dump ship's entire track history